Time;durP1;ratioP1;P1;durP2;ratioP2;P2;SDS_P1;SDS_P2;PMS_P1;PMS_P2;Temp;Humidity;BMP_temperature;BMP_pressure;BME280_temperature;BME280_humidity;BME280_pressure;Samples;Min_cycle;Max_cycle;Signal;HPM_P1;HPM_P2
2021/05/18 00:01:48;;;;;;;2.85;0.40;;;;;;;10.02;69.84;95847.44;5033509;28;20112;-66
2021/05/18 00:04:14;;;;;;;0.60;0.40;;;;;;;10.01;70.08;95852.09;5029798;28;21479;-66
2021/05/18 00:06:41;;;;;;;2.25;0.40;;;;;;;9.99;70.55;95865.22;5033012;28;20045;-66
2021/05/18 00:11:52;;;;;;;0.50;0.30;;;;;;;10.04;70.55;95859.59;5033061;28;20129;-66
2021/05/18 00:14:20;;;;;;;2.38;0.40;;;;;;;10.06;70.62;95868.22;5032892;28;20045;-67
2021/05/18 00:16:46;;;;;;;1.00;0.30;;;;;;;10.11;70.87;95873.50;5032272;28;20064;-66
2021/05/18 00:19:13;;;;;;;1.98;0.20;;;;;;;10.14;70.74;95875.56;5032893;28;20057;-67
2021/05/18 00:21:39;;;;;;;1.23;0.40;;;;;;;10.22;70.88;95882.09;5033354;28;20118;-66
2021/05/18 00:24:06;;;;;;;2.53;1.00;;;;;;;10.26;70.70;95879.53;5032576;28;20496;-67
2021/05/18 00:26:34;;;;;;;0.32;0.30;;;;;;;10.30;70.71;95875.06;5032203;28;20050;-66
2021/05/18 00:29:00;;;;;;;1.08;0.30;;;;;;;10.30;71.07;95880.50;5033167;28;20042;-67
2021/05/18 00:31:26;;;;;;;1.42;0.40;;;;;;;10.32;70.86;95878.22;5032130;28;20053;-66
2021/05/18 00:33:52;;;;;;;1.08;0.40;;;;;;;10.37;70.98;95887.00;5032309;28;20045;-69
2021/05/18 00:36:18;;;;;;;1.60;0.45;;;;;;;10.37;71.19;95884.28;5031762;28;20049;-67
2021/05/18 00:38:44;;;;;;;2.47;0.57;;;;;;;10.37;70.96;95881.56;5032210;28;20053;-67
2021/05/18 00:41:10;;;;;;;1.20;0.40;;;;;;;10.38;70.21;95883.16;5032377;28;20042;-66
2021/05/18 00:43:38;;;;;;;1.05;0.47;;;;;;;10.41;70.80;95898.84;5031898;28;20053;-67
2021/05/18 00:46:05;;;;;;;3.85;0.57;;;;;;;10.38;70.46;95888.59;5032635;28;20441;-67
2021/05/18 00:48:32;;;;;;;0.85;0.30;;;;;;;10.39;70.40;95894.88;5031583;28;20044;-67
2021/05/18 00:51:00;;;;;;;2.10;0.55;;;;;;;10.42;69.88;95891.47;5032926;28;20118;-66
2021/05/18 00:53:26;;;;;;;2.78;0.30;;;;;;;10.45;69.86;95893.56;5031043;28;20042;-66
2021/05/18 00:55:57;;;;;;;0.28;0.20;;;;;;;10.43;69.55;95895.78;5032339;28;20124;-67
2021/05/18 00:58:28;;;;;;;1.27;0.70;;;;;;;10.42;69.72;95894.19;5031754;28;20052;-66
2021/05/18 01:00:57;;;;;;;0.52;0.30;;;;;;;10.46;69.76;95895.13;5031989;28;20051;-67
2021/05/18 01:03:23;;;;;;;1.35;0.30;;;;;;;10.44;69.41;95900.13;5031826;28;20463;-67
2021/05/18 01:08:34;;;;;;;0.30;0.30;;;;;;;10.42;69.26;95892.28;5032388;28;20408;-67
2021/05/18 01:11:01;;;;;;;1.00;0.30;;;;;;;10.47;69.39;95894.00;5031434;28;20045;-67
2021/05/18 01:13:31;;;;;;;0.77;0.30;;;;;;;10.42;69.44;95888.75;5031865;28;20045;-66
2021/05/18 01:15:58;;;;;;;0.22;0.20;;;;;;;10.42;69.52;95897.72;5031396;28;20049;-67
2021/05/18 01:18:24;;;;;;;1.98;0.40;;;;;;;10.42;69.21;95899.63;5031342;28;20042;-67
2021/05/18 01:20:55;;;;;;;1.15;0.50;;;;;;;10.38;69.32;95904.13;5031914;28;20128;-67
2021/05/18 01:23:21;;;;;;;0.30;0.28;;;;;;;10.40;68.84;95886.38;5030622;28;20053;-67
2021/05/18 01:25:47;;;;;;;0.98;0.40;;;;;;;10.39;68.88;95897.59;5032145;28;20448;-67
2021/05/18 01:28:13;;;;;;;1.10;0.30;;;;;;;10.43;68.29;95895.78;5030524;28;20046;-67
2021/05/18 01:30:40;;;;;;;0.47;0.30;;;;;;;10.40;68.61;95907.34;5032476;28;20156;-68
2021/05/18 01:33:06;;;;;;;0.22;0.20;;;;;;;10.36;67.93;95903.66;5030304;28;20038;-67
2021/05/18 01:35:32;;;;;;;0.25;0.20;;;;;;;10.37;68.03;95892.44;5029716;28;20057;-67
2021/05/18 01:38:00;;;;;;;1.02;0.30;;;;;;;10.38;68.22;95904.13;5031665;28;20550;-67
2021/05/18 01:43:09;;;;;;;1.15;0.30;;;;;;;10.33;69.14;95907.03;5009731;28;20611;-67
2021/05/18 01:45:36;;;;;;;2.00;0.22;;;;;;;10.32;68.74;95910.88;5031094;28;20052;-67
2021/05/18 01:48:06;;;;;;;0.55;0.30;;;;;;;10.29;69.43;95911.56;5031224;28;20053;-68
2021/05/18 01:50:32;;;;;;;0.47;0.25;;;;;;;10.26;68.61;95915.72;5030450;28;20136;-67
2021/05/18 01:52:59;;;;;;;0.45;0.30;;;;;;;10.17;68.78;95914.91;5031932;28;20053;-67
2021/05/18 01:55:29;;;;;;;0.50;0.25;;;;;;;10.16;68.15;95908.69;5030223;28;20099;-68
2021/05/18 01:57:56;;;;;;;0.15;0.15;;;;;;;10.15;68.79;95912.53;5031411;28;20037;-68
2021/05/18 02:00:26;;;;;;;1.10;0.30;;;;;;;10.18;68.69;95920.06;5030488;28;20049;-68
2021/05/18 02:02:53;;;;;;;0.43;0.20;;;;;;;10.21;68.75;95915.88;5030860;28;20087;-67
2021/05/18 02:05:20;;;;;;;0.40;0.30;;;;;;;10.24;69.34;95917.19;5029233;28;20042;-67
2021/05/18 02:07:49;;;;;;;2.70;0.20;;;;;;;10.27;69.27;95924.69;5030603;28;20045;-67
2021/05/18 02:10:17;;;;;;;0.98;0.20;;;;;;;10.26;68.94;95923.09;5031133;28;20041;-67
2021/05/18 02:12:44;;;;;;;1.40;0.30;;;;;;;10.28;68.92;95921.63;5030037;28;20512;-69
2021/05/18 02:15:22;;;;;;;0.70;0.20;;;;;;;10.23;68.44;95920.97;5031036;28;20041;-68
2021/05/18 02:18:12;;;;;;;0.80;0.17;;;;;;;10.19;68.98;95921.66;5030097;28;20045;-67
2021/05/18 02:20:41;;;;;;;0.55;0.22;;;;;;;10.17;69.22;95932.03;5030646;28;20132;-67
2021/05/18 02:25:53;;;;;;;0.30;0.30;;;;;;;10.14;69.27;95931.91;5030145;28;20048;-67
2021/05/18 02:28:19;;;;;;;1.25;0.30;;;;;;;10.12;69.67;95932.22;5030685;28;20048;-67
2021/05/18 02:30:48;;;;;;;0.40;0.20;;;;;;;10.08;69.54;95930.50;5030073;28;20056;-66
2021/05/18 02:33:14;;;;;;;0.50;0.30;;;;;;;10.10;69.72;95934.47;5030637;28;20447;-67
2021/05/18 02:35:41;;;;;;;1.48;0.20;;;;;;;10.11;69.33;95930.63;5028578;28;20056;-67
2021/05/18 02:38:07;;;;;;;0.60;0.20;;;;;;;10.07;69.58;95937.81;5030089;28;20091;-66
2021/05/18 02:40:36;;;;;;;0.40;0.22;;;;;;;10.07;69.38;95931.59;5030141;28;20052;-68
2021/05/18 02:43:04;;;;;;;0.60;0.30;;;;;;;10.10;69.54;95933.66;5029887;28;20044;-67
2021/05/18 02:45:33;;;;;;;0.50;0.25;;;;;;;10.05;69.90;95937.38;5030339;28;20049;-67
2021/05/18 02:50:43;;;;;;;0.57;0.30;;;;;;;10.02;70.34;95950.81;5030731;28;20558;-69
2021/05/18 02:53:10;;;;;;;0.22;0.22;;;;;;;10.03;70.11;95941.53;5029501;28;20060;-69
2021/05/18 02:55:41;;;;;;;0.35;0.20;;;;;;;10.00;70.20;95942.97;5030535;28;20049;-68
2021/05/18 02:58:09;;;;;;;0.50;0.30;;;;;;;9.97;70.41;95943.66;5029506;28;20077;-69
2021/05/18 03:00:36;;;;;;;1.67;0.30;;;;;;;10.00;70.40;95953.84;5030397;28;20124;-69
2021/05/18 03:03:02;;;;;;;0.47;0.30;;;;;;;10.00;70.74;95942.19;5029754;28;20496;-69
2021/05/18 03:05:28;;;;;;;0.52;0.20;;;;;;;10.03;70.69;95953.22;5028469;28;20044;-69
2021/05/18 03:07:54;;;;;;;0.40;0.30;;;;;;;10.06;70.87;95949.84;5030597;28;20052;-69
2021/05/18 03:10:21;;;;;;;0.98;0.40;;;;;;;10.05;70.59;95953.69;5029212;28;20563;-69
2021/05/18 03:12:47;;;;;;;1.65;0.30;;;;;;;10.05;70.52;95945.53;5030820;28;20072;-69
2021/05/18 03:15:16;;;;;;;0.20;0.20;;;;;;;10.05;70.78;95961.84;5029367;28;20053;-69
2021/05/18 03:17:42;;;;;;;1.20;0.40;;;;;;;10.00;70.89;95953.84;5030412;28;20439;-69
2021/05/18 03:20:13;;;;;;;1.77;0.43;;;;;;;10.06;71.23;95958.00;5029281;28;20037;-69
2021/05/18 03:22:39;;;;;;;0.63;0.30;;;;;;;10.11;70.81;95955.09;5030189;28;20049;-69
2021/05/18 03:25:07;;;;;;;0.50;0.40;;;;;;;10.08;70.97;95955.78;5029653;28;20115;-70
2021/05/18 03:27:33;;;;;;;0.85;0.32;;;;;;;10.14;70.82;95959.91;5029705;28;20567;-68
2021/05/18 03:30:01;;;;;;;3.47;0.55;;;;;;;10.15;70.50;95961.50;5030311;28;20048;-69
2021/05/18 03:35:12;;;;;;;0.63;0.30;;;;;;;10.22;70.51;95965.63;5028895;28;20444;-69
2021/05/18 03:37:48;;;;;;;0.52;0.45;;;;;;;10.20;70.74;95969.50;5029508;28;20099;-69
2021/05/18 03:40:16;;;;;;;2.20;0.30;;;;;;;10.20;70.75;95974.94;5029738;28;20045;-69
2021/05/18 03:42:46;;;;;;;0.40;0.28;;;;;;;10.20;70.68;95974.94;5029619;28;20045;-69
2021/05/18 03:45:16;;;;;;;1.20;0.30;;;;;;;10.20;71.18;95969.50;5029395;28;20529;-69
2021/05/18 03:59:08;;;;;;;0.57;0.50;;;;;;;10.23;71.12;95967.22;4975212;28;20501;-69
2021/05/18 04:04:21;;;;;;;2.03;0.50;;;;;;;10.23;70.72;95978.91;5011315;28;20408;-69
2021/05/18 04:12:30;;;;;;;0.57;0.40;;;;;;;10.10;72.42;95980.72;5012852;28;20688;-69
2021/05/18 04:17:48;;;;;;;1.88;0.40;;;;;;;10.10;72.99;95988.88;5012730;28;20064;-69
2021/05/18 04:20:25;;;;;;;1.80;0.43;;;;;;;10.11;73.24;95995.91;5012790;28;20129;-69
2021/05/18 04:23:13;;;;;;;1.98;0.47;;;;;;;10.13;72.40;95988.25;5013093;28;20539;-69
2021/05/18 04:39:57;;;;;;;0.52;0.52;;;;;;;10.06;72.39;95995.28;5011859;28;20053;-68
2021/05/18 04:48:24;;;;;;;0.65;0.32;;;;;;;10.22;71.42;96009.19;4970202;28;20418;-68
2021/05/18 04:51:01;;;;;;;1.90;0.40;;;;;;;10.24;71.76;96006.97;5000194;28;20073;-68
2021/05/18 04:53:35;;;;;;;0.70;0.40;;;;;;;10.29;71.51;96012.25;5011809;28;20049;-68
2021/05/18 04:59:02;;;;;;;1.33;0.38;;;;;;;10.31;71.19;96012.72;5012621;28;20053;-68
2021/05/18 05:01:35;;;;;;;2.45;0.50;;;;;;;10.32;71.37;96015.09;5011662;28;20038;-68
2021/05/18 05:04:10;;;;;;;1.27;0.40;;;;;;;10.37;71.70;96016.84;5014446;28;20124;-68
2021/05/18 05:06:46;;;;;;;1.77;0.50;;;;;;;10.42;71.55;96016.69;5011617;28;20065;-68
2021/05/18 05:09:21;;;;;;;1.00;0.45;;;;;;;10.46;71.14;96025.81;5012051;28;20044;-68
2021/05/18 05:14:31;;;;;;;5.05;0.77;;;;;;;10.46;70.33;96025.81;5011405;28;20125;-68
2021/05/18 05:16:57;;;;;;;3.08;0.52;;;;;;;10.44;70.97;96022.63;5012602;28;20069;-68
2021/05/18 05:19:27;;;;;;;0.70;0.35;;;;;;;10.47;70.70;96032.84;5010843;28;20045;-67
2021/05/18 05:21:54;;;;;;;1.92;0.50;;;;;;;10.44;70.42;96028.84;5012626;28;20042;-68
2021/05/18 05:24:20;;;;;;;0.35;0.30;;;;;;;10.44;70.00;96028.06;5011123;28;20696;-68
2021/05/18 05:26:47;;;;;;;0.52;0.50;;;;;;;10.44;70.29;96033.50;5012362;28;20056;-68
2021/05/18 05:29:13;;;;;;;1.73;0.20;;;;;;;10.47;70.05;96030.13;5011102;28;20038;-68
2021/05/18 05:31:39;;;;;;;0.93;0.30;;;;;;;10.49;70.23;96036.03;5011987;28;20409;-68
2021/05/18 05:34:05;;;;;;;0.43;0.40;;;;;;;10.51;70.56;96036.50;5013022;28;20045;-68
2021/05/18 05:36:31;;;;;;;1.85;0.47;;;;;;;10.58;70.00;96044.97;5031187;28;20133;-68
2021/05/18 05:39:03;;;;;;;1.00;0.32;;;;;;;10.60;70.49;96048.19;5031708;28;20569;-68
2021/05/18 05:41:29;;;;;;;1.20;0.32;;;;;;;10.66;70.26;96051.53;5030627;28;20049;-68
2021/05/18 05:43:55;;;;;;;1.00;0.50;;;;;;;10.68;70.40;96055.50;5031916;28;20055;-68
2021/05/18 05:46:21;;;;;;;0.40;0.35;;;;;;;10.67;71.88;96053.91;5029801;28;20124;-72
2021/05/18 05:48:52;;;;;;;1.73;0.50;;;;;;;10.63;71.60;96055.69;5031378;28;20496;-72
2021/05/18 05:51:23;;;;;;;0.43;0.40;;;;;;;10.48;71.82;96067.09;5029227;28;20666;-71
2021/05/18 05:53:49;;;;;;;1.30;0.40;;;;;;;10.37;71.58;96069.38;5021177;28;20052;-72
2021/05/18 05:56:16;;;;;;;0.32;0.30;;;;;;;10.29;71.38;96069.41;5007916;28;20428;-71
2021/05/18 05:58:43;;;;;;;2.40;0.47;;;;;;;10.28;73.26;96056.88;5008519;28;20584;-71
2021/05/18 06:01:09;;;;;;;0.57;0.57;;;;;;;10.31;72.87;96069.88;5007106;28;20049;-71
2021/05/18 06:03:35;;;;;;;0.65;0.30;;;;;;;10.38;72.44;96068.22;5007591;28;20060;-71
2021/05/18 06:06:01;;;;;;;1.63;0.40;;;;;;;10.47;72.18;96070.16;5016530;28;20180;-71
2021/05/18 06:08:27;;;;;;;0.68;0.30;;;;;;;10.57;71.38;96075.25;5025982;28;20041;-72
2021/05/18 06:10:58;;;;;;;0.77;0.30;;;;;;;10.55;71.14;96086.47;5028697;28;20052;-72
2021/05/18 06:16:35;;;;;;;0.20;0.20;;;;;;;10.50;71.05;96081.19;5027772;28;20095;-71
2021/05/18 06:41:15;;;;;;;0.28;0.28;;;;;;;10.74;70.60;96098.91;5010759;28;20048;-71
2021/05/18 06:43:54;;;;;;;0.77;0.30;;;;;;;10.71;69.06;96101.16;5010196;28;20477;-71
2021/05/18 06:46:23;;;;;;;0.47;0.30;;;;;;;10.73;69.86;96100.03;5010975;28;20088;-71
2021/05/18 06:48:57;;;;;;;3.30;0.50;;;;;;;10.74;69.16;96101.63;5010017;28;20132;-70
2021/05/18 06:51:23;;;;;;;0.80;0.40;;;;;;;10.81;70.11;96107.41;5010793;28;20046;-71
2021/05/18 06:53:49;;;;;;;0.70;0.22;;;;;;;10.97;69.71;96101.09;5010576;28;20046;-72
2021/05/18 06:56:16;;;;;;;1.75;0.40;;;;;;;11.07;69.57;96116.28;5010328;28;20069;-72
2021/05/18 07:01:25;;;;;;;3.05;0.40;;;;;;;11.11;70.17;96125.38;4992281;28;20139;-72
2021/05/18 07:03:54;;;;;;;0.80;0.40;;;;;;;11.23;69.47;96120.06;5030871;28;20513;-71
2021/05/18 07:06:29;;;;;;;1.73;0.32;;;;;;;11.24;69.11;96121.66;5028311;28;20049;-71
2021/05/18 07:08:56;;;;;;;0.40;0.30;;;;;;;11.33;69.41;96126.25;5030461;28;20381;-71
2021/05/18 07:11:22;;;;;;;1.20;0.30;;;;;;;11.47;69.41;96118.63;5027351;28;20100;-71
2021/05/18 07:13:48;;;;;;;1.27;0.38;;;;;;;11.54;68.59;96118.94;5027894;28;20092;-72
2021/05/18 07:16:15;;;;;;;0.43;0.30;;;;;;;11.63;69.67;96116.94;5027317;28;20169;-72
2021/05/18 07:18:40;;;;;;;1.05;0.40;;;;;;;11.82;68.45;96113.00;5027464;28;20042;-72
2021/05/18 07:21:07;;;;;;;0.50;0.40;;;;;;;12.04;67.41;96123.59;5027565;28;20843;-72
2021/05/18 07:23:34;;;;;;;1.02;0.30;;;;;;;12.20;67.96;96115.59;5027553;28;20495;-73
2021/05/18 07:26:00;;;;;;;0.68;0.40;;;;;;;12.17;66.04;96122.53;5027996;28;20041;-72
2021/05/18 07:28:30;;;;;;;0.38;0.30;;;;;;;12.17;66.85;96113.56;5028333;28;20045;-71
2021/05/18 07:30:56;;;;;;;0.90;0.40;;;;;;;12.12;65.97;96119.22;5029217;28;20045;-72
2021/05/18 07:33:23;;;;;;;0.68;0.35;;;;;;;12.20;65.77;96124.59;5028629;28;20650;-72
2021/05/18 07:35:54;;;;;;;0.35;0.30;;;;;;;12.19;65.87;96111.28;5032901;28;20056;-72
2021/05/18 07:38:21;;;;;;;1.13;0.45;;;;;;;12.42;65.13;96115.25;5032937;28;20057;-72
2021/05/18 07:40:47;;;;;;;1.17;0.30;;;;;;;12.56;63.77;96103.25;5032913;28;20608;-71
2021/05/18 07:43:17;;;;;;;2.17;0.40;;;;;;;12.66;64.61;96111.81;5032952;28;20133;-72
2021/05/18 07:45:45;;;;;;;0.35;0.35;;;;;;;12.59;63.83;96114.31;5033436;28;20524;-71
2021/05/18 07:48:17;;;;;;;0.60;0.30;;;;;;;12.53;62.88;96112.91;5033150;28;20125;-71
2021/05/18 07:50:47;;;;;;;0.93;0.30;;;;;;;12.49;62.41;96106.53;5033047;28;20068;-71
2021/05/18 08:06:55;;;;;;;0.63;0.30;;;;;;;13.14;60.93;96106.78;5033978;28;20064;-73
2021/05/18 08:09:23;;;;;;;0.55;0.30;;;;;;;14.23;59.52;96103.16;5032485;28;20049;-72
2021/05/18 08:11:50;;;;;;;0.38;0.38;;;;;;;15.03;57.44;96106.91;5034024;28;20083;-71
2021/05/18 08:14:18;;;;;;;0.90;0.40;;;;;;;15.14;56.02;96102.53;5033630;28;20049;-72
2021/05/18 08:19:47;;;;;;;0.60;0.30;;;;;;;15.76;53.21;96106.38;5012433;28;20046;-72
2021/05/18 10:23:12;;;;;;;0.57;0.50;;;;;;;8.75;85.01;96159.22;5027464;28;20158;-70
2021/05/18 10:36:02;;;;;;;0.55;0.47;;;;;;;10.00;86.21;96138.03;5028410;28;20034;-69
2021/05/18 10:38:32;;;;;;;0.75;0.50;;;;;;;10.22;84.17;96142.50;5030495;28;20524;-68
2021/05/18 10:41:12;;;;;;;1.95;0.45;;;;;;;10.66;83.85;96144.91;5030533;28;20451;-70
2021/05/18 10:43:39;;;;;;;1.80;0.43;;;;;;;10.67;80.16;96135.63;5030212;28;20041;-69
2021/05/18 10:46:20;;;;;;;0.32;0.28;;;;;;;11.10;81.79;96134.69;5030763;28;20050;-69
2021/05/18 10:49:00;;;;;;;0.98;0.30;;;;;;;11.45;77.70;96127.16;5030317;28;20124;-70
2021/05/18 10:51:35;;;;;;;0.75;0.30;;;;;;;11.76;78.63;96120.56;5030383;28;20041;-70
2021/05/18 10:54:10;;;;;;;0.60;0.40;;;;;;;11.97;75.59;96126.06;5030286;28;20095;-70
2021/05/18 10:56:59;;;;;;;2.50;0.30;;;;;;;12.09;73.74;96107.03;5023600;28;20514;-70
2021/05/18 10:59:27;;;;;;;0.40;0.17;;;;;;;12.40;75.54;96108.53;5030680;28;20049;-70
2021/05/18 11:01:57;;;;;;;0.20;0.20;;;;;;;12.79;74.40;96097.06;5029865;28;20060;-69
2021/05/18 11:04:24;;;;;;;0.50;0.40;;;;;;;13.19;73.18;96098.34;5030202;28;20083;-70
2021/05/18 11:06:51;;;;;;;0.30;0.30;;;;;;;13.23;66.16;96100.09;5031173;28;20392;-71
2021/05/18 11:09:17;;;;;;;0.77;0.20;;;;;;;12.99;65.52;96105.50;5034478;28;20042;-72
2021/05/18 11:11:44;;;;;;;0.20;0.20;;;;;;;12.87;64.85;96105.50;5034279;28;20057;-73
2021/05/18 11:14:11;;;;;;;3.85;0.30;;;;;;;12.82;66.52;96097.50;5034083;28;20041;-71
2021/05/18 11:16:37;;;;;;;1.83;0.20;;;;;;;12.97;66.11;96096.84;5034252;28;20451;-72
2021/05/18 11:19:09;;;;;;;0.47;0.25;;;;;;;13.02;64.54;96093.91;5033446;28;20099;-72
2021/05/18 11:21:39;;;;;;;0.75;0.20;;;;;;;12.86;64.74;96084.78;5034466;28;20049;-72
2021/05/18 11:24:11;;;;;;;0.20;0.20;;;;;;;12.94;65.57;96086.59;5033012;28;20064;-72
2021/05/18 11:26:47;;;;;;;0.38;0.20;;;;;;;13.24;66.35;96082.53;5034613;28;20420;-72
2021/05/18 11:29:13;;;;;;;1.15;0.30;;;;;;;13.36;64.51;96094.63;5033304;28;20156;-72
2021/05/18 11:31:40;;;;;;;1.08;0.20;;;;;;;13.48;63.89;96083.69;5034122;28;20045;-72
2021/05/18 11:34:06;;;;;;;1.15;0.40;;;;;;;13.62;66.43;96081.38;5032598;28;20132;-72
2021/05/18 11:36:34;;;;;;;0.82;0.50;;;;;;;13.77;64.20;96075.22;5034089;28;20077;-72
2021/05/18 11:39:06;;;;;;;0.57;0.20;;;;;;;13.91;61.58;96077.59;5033719;28;20045;-72
2021/05/18 11:41:35;;;;;;;0.30;0.20;;;;;;;13.97;62.52;96089.09;5033337;28;20049;-72
2021/05/18 11:44:01;;;;;;;0.40;0.20;;;;;;;13.78;62.21;96093.25;5034398;28;20094;-72
2021/05/18 11:46:30;;;;;;;0.10;0.10;;;;;;;13.01;60.41;96104.03;5033181;28;20038;-72
2021/05/18 11:49:00;;;;;;;0.25;0.10;;;;;;;12.70;61.20;96114.69;5034346;28;20046;-71
2021/05/18 11:51:29;;;;;;;0.30;0.20;;;;;;;12.33;63.09;96116.47;5032801;28;20516;-71
2021/05/18 11:54:02;;;;;;;1.10;0.10;;;;;;;11.88;67.77;96117.13;5033810;28;20479;-70
2021/05/18 11:56:29;;;;;;;0.63;0.20;;;;;;;11.51;71.48;96119.59;5033318;28;20049;-70
2021/05/18 11:59:05;;;;;;;1.25;0.20;;;;;;;11.14;72.71;96122.00;5033057;28;20056;-69
2021/05/18 12:01:35;;;;;;;0.93;0.20;;;;;;;10.88;74.71;96121.31;5033451;28;20049;-69
2021/05/18 12:04:03;;;;;;;4.25;0.40;;;;;;;10.60;76.26;96110.81;5032492;28;20049;-70
2021/05/18 12:06:30;;;;;;;0.32;0.32;;;;;;;10.60;78.65;96105.38;5033629;28;20096;-70
2021/05/18 12:08:57;;;;;;;1.25;0.30;;;;;;;10.87;78.62;96106.88;5032613;28;20092;-70
2021/05/18 12:11:23;;;;;;;1.60;0.38;;;;;;;10.95;79.86;96097.06;5033169;28;20492;-70
2021/05/18 12:13:50;;;;;;;2.45;0.40;;;;;;;10.94;79.40;96087.31;5032833;28;20544;-70
2021/05/18 12:16:18;;;;;;;0.95;0.45;;;;;;;11.19;81.53;96074.69;5032891;28;20042;-71
2021/05/18 12:18:50;;;;;;;0.52;0.40;;;;;;;11.29;80.09;96076.25;5032272;28;20045;-70
2021/05/18 12:21:18;;;;;;;2.00;0.40;;;;;;;11.47;81.20;96088.66;5032521;28;20116;-71
2021/05/18 12:24:01;;;;;;;0.80;0.50;;;;;;;11.79;80.25;96086.34;5032902;28;20037;-71
2021/05/18 12:26:27;;;;;;;;;;;;;;;11.88;77.23;96081.66;5012857;28;20520;-71
2021/05/18 12:28:58;;;;;;;0.95;0.32;;;;;;;11.98;80.50;96079.34;5013694;28;19921;-71
2021/05/18 12:31:29;;;;;;;0.30;0.20;;;;;;;12.06;74.64;96074.97;5011930;28;20046;-71
2021/05/18 12:33:57;;;;;;;1.75;0.40;;;;;;;12.21;71.53;96077.03;5012446;28;20069;-71
2021/05/18 12:36:23;;;;;;;0.45;0.10;;;;;;;12.30;69.10;96068.00;5011767;28;20049;-72
2021/05/18 12:39:09;;;;;;;1.65;0.28;;;;;;;12.44;71.24;96063.03;5012275;28;20041;-70
2021/05/18 12:42:06;;;;;;;0.43;0.20;;;;;;;12.47;69.63;96073.28;5013154;28;20111;-71
2021/05/18 12:44:34;;;;;;;0.20;0.20;;;;;;;12.57;69.00;96072.84;4951331;28;20051;-72
2021/05/18 12:47:04;;;;;;;0.20;0.20;;;;;;;12.67;68.67;96077.88;4999584;28;20046;-71
2021/05/18 12:49:35;;;;;;;0.20;0.20;;;;;;;12.73;64.12;96076.53;5012156;28;20041;-71
2021/05/18 12:52:06;;;;;;;1.27;0.20;;;;;;;12.72;64.31;96069.47;5012852;28;20042;-70
2021/05/18 12:54:45;;;;;;;0.20;0.20;;;;;;;12.86;62.25;96065.63;5012519;28;20481;-71
2021/05/18 12:57:13;;;;;;;0.85;0.20;;;;;;;12.93;62.98;96069.41;5011724;28;20061;-71
2021/05/18 12:59:59;;;;;;;0.20;0.20;;;;;;;12.90;61.33;96074.75;5013237;28;20041;-70
2021/05/18 13:02:35;;;;;;;0.55;0.38;;;;;;;12.83;61.25;96063.56;5011896;28;20050;-71
2021/05/18 13:05:14;;;;;;;0.75;0.32;;;;;;;12.80;62.90;96071.31;5012194;28;20041;-71
2021/05/18 13:07:42;;;;;;;1.45;0.30;;;;;;;12.72;62.10;96061.28;5012564;28;20404;-71
2021/05/18 13:10:12;;;;;;;0.32;0.20;;;;;;;12.55;61.33;96072.41;5011848;28;20049;-71
2021/05/18 13:12:39;;;;;;;1.38;0.32;;;;;;;12.62;63.18;96069.09;5012638;28;20554;-71
2021/05/18 13:15:07;;;;;;;1.08;0.30;;;;;;;12.76;65.02;96064.94;5011730;28;20034;-70
2021/05/18 13:17:33;;;;;;;0.50;0.30;;;;;;;12.99;66.31;96059.03;5012991;28;20045;-72
2021/05/18 13:20:02;;;;;;;0.98;0.30;;;;;;;13.17;64.12;96052.22;5011743;28;20038;-71
2021/05/18 13:22:32;;;;;;;1.17;0.30;;;;;;;13.27;59.41;96062.75;5012424;28;20407;-71
2021/05/18 13:27:52;;;;;;;0.38;0.30;;;;;;;13.30;60.37;96062.03;5012109;28;20136;-70
2021/05/18 13:30:20;;;;;;;1.83;0.50;;;;;;;13.39;60.93;96047.47;5011953;28;20041;-71
2021/05/18 13:32:47;;;;;;;1.77;0.40;;;;;;;13.49;59.77;96047.00;5011780;28;20057;-71
2021/05/18 13:35:14;;;;;;;0.32;0.30;;;;;;;13.61;57.23;96049.69;5010703;28;20049;-71
2021/05/18 13:37:40;;;;;;;0.75;0.25;;;;;;;13.70;60.66;96053.13;5011301;28;20044;-71
2021/05/18 13:40:08;;;;;;;1.10;0.60;;;;;;;13.81;57.82;96048.75;5012197;28;20096;-72
2021/05/18 13:42:34;;;;;;;3.60;0.32;;;;;;;13.97;60.20;96040.59;5011611;28;20497;-72
2021/05/18 13:45:00;;;;;;;1.63;0.50;;;;;;;14.09;56.17;96039.75;5011278;28;20092;-71
2021/05/18 13:47:26;;;;;;;0.95;0.30;;;;;;;14.13;57.00;96043.41;5028348;28;20129;-70
2021/05/18 13:49:52;;;;;;;3.47;0.40;;;;;;;14.18;56.96;96034.16;5028479;28;20136;-70
2021/05/18 13:52:18;;;;;;;2.55;0.88;;;;;;;14.25;58.03;96035.16;5028520;28;20052;-71
2021/05/18 13:54:44;;;;;;;2.00;0.32;;;;;;;14.27;53.94;96032.84;5034308;28;20045;-70
2021/05/18 13:57:10;;;;;;;0.93;0.40;;;;;;;14.33;58.01;96025.19;5029169;28;20053;-71
2021/05/18 13:59:36;;;;;;;1.50;0.50;;;;;;;14.42;58.40;96017.59;5030816;28;20079;-71
2021/05/18 14:02:02;;;;;;;2.10;0.35;;;;;;;14.70;59.01;96022.25;5031370;28;20037;-71
2021/05/18 14:04:28;;;;;;;1.23;0.30;;;;;;;14.92;55.05;96018.09;5030139;28;20073;-71
2021/05/18 14:07:39;;;;;;;1.23;0.35;;;;;;;14.79;56.45;96020.16;5031619;28;20037;-71
2021/05/18 14:10:07;;;;;;;1.65;0.35;;;;;;;14.77;56.28;96017.78;5030665;28;20034;-71
2021/05/18 14:12:33;;;;;;;3.25;0.63;;;;;;;14.52;55.85;96010.84;5030803;28;20501;-71
2021/05/18 14:14:59;;;;;;;0.40;0.30;;;;;;;14.66;56.53;96016.69;5031642;28;20412;-71
2021/05/18 14:17:25;;;;;;;1.25;0.30;;;;;;;14.82;56.58;96017.47;5030043;28;20041;-71
2021/05/18 14:19:51;;;;;;;1.20;0.30;;;;;;;14.84;53.96;96012.47;5031554;28;20048;-71
2021/05/18 14:22:17;;;;;;;0.47;0.32;;;;;;;14.73;54.75;96018.84;5029865;28;20497;-71
2021/05/18 14:24:51;;;;;;;0.35;0.35;;;;;;;14.67;56.26;96018.28;5031588;28;20041;-71
2021/05/18 14:27:19;;;;;;;1.40;0.30;;;;;;;14.38;56.26;96016.72;5030108;28;20500;-71
2021/05/18 14:29:45;;;;;;;4.40;0.95;;;;;;;14.38;56.42;96037.81;5031058;28;20132;-71
2021/05/18 14:32:11;;;;;;;3.72;0.70;;;;;;;14.04;57.08;96046.31;5030297;28;20087;-70
2021/05/18 14:34:37;;;;;;;3.22;0.50;;;;;;;13.25;55.98;96037.66;5029237;28;20049;-71
2021/05/18 14:37:03;;;;;;;1.98;0.35;;;;;;;12.86;57.60;96046.50;5030356;28;20075;-70
2021/05/18 14:39:37;;;;;;;1.15;0.30;;;;;;;12.60;57.50;96055.78;5029913;28;20566;-69
2021/05/18 14:44:48;;;;;;;0.73;0.30;;;;;;;12.28;61.04;96060.16;5030342;28;20052;-69
2021/05/18 14:47:19;;;;;;;2.15;0.47;;;;;;;12.46;60.20;96044.38;5030475;28;20053;-70
2021/05/18 14:55:17;;;;;;;1.50;0.40;;;;;;;12.52;59.76;96048.47;5030795;28;20535;-70
2021/05/18 14:57:44;;;;;;;1.02;0.40;;;;;;;12.38;58.82;96042.56;5030024;28;20125;-71
2021/05/18 15:00:12;;;;;;;0.65;0.20;;;;;;;12.34;60.30;96027.97;5030645;28;20492;-71
2021/05/18 15:02:38;;;;;;;1.88;0.30;;;;;;;12.43;60.31;96034.94;5029912;28;20063;-70
2021/05/18 15:05:05;;;;;;;2.33;0.30;;;;;;;12.45;60.70;96020.94;5029489;28;20077;-70
2021/05/18 15:07:31;;;;;;;4.75;0.50;;;;;;;12.55;60.41;96031.44;5029857;28;20053;-71
2021/05/18 15:09:57;;;;;;;2.28;0.30;;;;;;;12.68;59.39;96029.50;5030320;28;20053;-70
2021/05/18 15:12:23;;;;;;;0.40;0.30;;;;;;;12.67;59.73;96028.72;5029540;28;20117;-71
2021/05/18 15:14:49;;;;;;;2.30;0.40;;;;;;;12.85;60.53;96029.31;5029687;28;20079;-70
2021/05/18 15:17:16;;;;;;;0.38;0.25;;;;;;;13.00;61.19;96030.59;5030381;28;20095;-71
2021/05/18 15:19:44;;;;;;;1.50;0.38;;;;;;;13.11;58.12;96026.25;5029457;28;20390;-72
2021/05/18 15:22:11;;;;;;;1.70;0.98;;;;;;;13.21;58.04;96019.53;5030190;28;20037;-71
2021/05/18 15:24:37;;;;;;;0.80;0.40;;;;;;;13.32;57.26;96018.75;5029731;28;20496;-71
2021/05/18 15:27:05;;;;;;;1.17;0.40;;;;;;;13.51;56.59;96022.81;5029991;28;20168;-71
2021/05/18 15:29:31;;;;;;;1.92;0.40;;;;;;;13.68;56.46;96017.09;5029666;28;20576;-71
2021/05/18 15:31:59;;;;;;;1.33;0.38;;;;;;;13.90;56.14;96020.47;5030502;28;20460;-72
2021/05/18 15:34:26;;;;;;;4.20;0.30;;;;;;;14.03;55.31;96011.03;5028865;28;20064;-71
2021/05/18 15:36:52;;;;;;;1.45;0.30;;;;;;;14.04;54.14;96007.97;5029928;28;20041;-72
2021/05/18 15:39:18;;;;;;;0.75;0.45;;;;;;;13.94;54.62;96011.22;5029718;28;20045;-71
2021/05/18 15:41:44;;;;;;;0.20;0.20;;;;;;;13.96;54.52;96005.38;5028212;28;20124;-71
2021/05/18 15:44:10;;;;;;;1.55;0.65;;;;;;;13.88;54.32;95998.09;5027598;28;20389;-72
2021/05/18 15:46:36;;;;;;;2.53;0.50;;;;;;;13.82;54.65;96006.56;5028212;28;20046;-71
2021/05/18 15:49:02;;;;;;;0.75;0.30;;;;;;;13.74;54.90;95996.56;5030001;28;20058;-71
2021/05/18 15:51:30;;;;;;;1.48;0.30;;;;;;;13.73;54.89;96002.34;5029233;28;20049;-71
2021/05/18 15:53:56;;;;;;;1.88;0.55;;;;;;;13.71;54.81;95994.50;5031527;28;20057;-73